首页
METAR-TAF:

METAR-TAF

机场 :

Golden Triangle Regional Airport

哥伦布/ West Point / 斯塔克維爾, 密西西比州, 美国

纬度: 33-27N, 经度: 088-35W, 海拔: 80米

当前天气观测

该预报发布于14分钟前的22:56 UTC
风速5节,风向
温度 31°C
湿度 55%
气压 1014 hPa
能見度: 16.1公里
天空无云

METAR: KGTR 202256Z 10005KT 10SM CLR 31/21 A2995 RMK AO2 SLP139 T03060211 PNO $

时间: 18:10 (23:10 UTC)

预报

该预报发布于5小时和49分钟前的17:21 UTC
预报有效从20日的 18点(UTC)到 21日的 18点(UTC)
风速5节,风向东转东南
能見度: 10公里
少量云层高于2500英尺
散云层高于3500英尺
从 21日的 1600点(UTC)
风速12节,风向,有时为17节阵风
能見度: 10公里
散云层高于25000英尺

TAF: KGTR 201721Z 2018/2118 12005KT P6SM FEW025 SCT035 FM211600 17012G17KT P6SM SCT250

超过4000个机场的气象观测和天气预报(METAR&TAF报告)。

可查询的气象台以黄色和红色小点在地图上表示。

将鼠标移到小点上方,可查看气象台名称。

然后点击查看天气观测和预报。

如需切换地图:点击带黑十字的绿色按钮放大地图;点击带横线的绿色按钮缩小地图;或者点击绿色箭头查看邻近地区的地图。


METAR-TAF: